Time;durP1;ratioP1;P1;durP2;ratioP2;P2;SDS_P1;SDS_P2;PMS_P1;PMS_P2;Temp;Humidity;BMP_temperature;BMP_pressure;BME280_temperature;BME280_humidity;BME280_pressure;Samples;Min_cycle;Max_cycle;Signal;HPM_P1;HPM_P2
2024/04/11 04:06:47;;;;;;;0.40;0.40;;;4.80;99.90;;;;;;6002986;21;20306;-63
2024/04/11 04:09:15;;;;;;;0.40;0.40;;;4.70;99.90;;;;;;5349758;26;20222;-64
2024/04/11 04:11:41;;;;;;;0.40;0.40;;;4.70;99.90;;;;;;5348378;26;20300;-65
2024/04/11 04:14:12;;;;;;;0.40;0.40;;;4.70;99.90;;;;;;5349214;26;20225;-64
2024/04/11 04:16:46;;;;;;;0.40;0.40;;;4.70;99.90;;;;;;5349171;26;20249;-65
2024/04/11 04:19:12;;;;;;;0.43;0.43;;;4.70;99.90;;;;;;5348861;26;20221;-64
2024/04/11 04:21:39;;;;;;;0.40;0.40;;;4.70;99.90;;;;;;5348897;26;20263;-63
2024/04/11 04:24:05;;;;;;;0.40;0.40;;;4.70;99.90;;;;;;5349055;26;20229;-63
2024/04/11 04:26:31;;;;;;;0.50;0.50;;;4.70;99.90;;;;;;5349030;26;20564;-64
2024/04/11 04:28:57;;;;;;;0.40;0.40;;;4.70;99.90;;;;;;5349076;26;20261;-64
2024/04/11 04:31:30;;;;;;;0.40;0.40;;;4.60;99.90;;;;;;5348689;26;20443;-64
2024/04/11 04:33:57;;;;;;;0.30;0.30;;;4.70;99.90;;;;;;5348650;26;20264;-65
2024/04/11 04:36:28;;;;;;;0.30;0.30;;;4.70;99.90;;;;;;5345958;26;20231;-65
2024/04/11 04:38:56;;;;;;;0.60;0.60;;;4.70;99.90;;;;;;5345248;26;20822;-65
2024/04/11 04:41:25;;;;;;;0.50;0.50;;;4.70;99.90;;;;;;5346940;26;20226;-63
2024/04/11 04:43:53;;;;;;;0.40;0.40;;;4.70;99.90;;;;;;5348433;26;20218;-64
2024/04/11 04:46:20;;;;;;;0.40;0.40;;;4.70;99.90;;;;;;5347934;26;20242;-62
2024/04/11 04:48:46;;;;;;;0.38;0.38;;;4.70;99.90;;;;;;5348468;26;20596;-63
2024/04/11 04:51:11;;;;;;;0.30;0.30;;;4.70;99.90;;;;;;5348367;26;20697;-62
2024/04/11 04:53:37;;;;;;;0.30;0.30;;;4.80;99.90;;;;;;5346702;26;20213;-63
2024/04/11 04:56:04;;;;;;;0.40;0.40;;;4.80;99.90;;;;;;5344658;26;20670;-66
2024/04/11 04:58:30;;;;;;;0.30;0.30;;;4.80;99.90;;;;;;5345573;26;20562;-63
2024/04/11 05:00:56;;;;;;;0.50;0.50;;;4.80;99.90;;;;;;5345022;26;20219;-65
2024/04/11 05:03:24;;;;;;;0.40;0.40;;;4.80;99.90;;;;;;5344665;26;20449;-64
2024/04/11 05:05:50;;;;;;;0.38;0.38;;;4.80;99.90;;;;;;5344874;26;20232;-66
2024/04/11 05:08:16;;;;;;;0.40;0.40;;;4.90;99.90;;;;;;5314970;26;20377;-64
2024/04/11 05:10:41;;;;;;;0.30;0.30;;;5.00;99.90;;;;;;5317473;26;20228;-65
2024/04/11 05:13:10;;;;;;;0.73;0.73;;;5.20;99.90;;;;;;5353220;26;20232;-63
2024/04/11 05:15:37;;;;;;;0.40;0.40;;;5.30;99.90;;;;;;5347747;26;20213;-63
2024/04/11 05:18:04;;;;;;;0.40;0.40;;;5.50;99.90;;;;;;5347929;26;20278;-63
2024/04/11 05:20:33;;;;;;;0.40;0.40;;;5.70;99.90;;;;;;5347915;26;20247;-65
2024/04/11 05:22:59;;;;;;;0.30;0.30;;;5.90;99.90;;;;;;5317122;26;20351;-64
2024/04/11 05:25:33;;;;;;;0.50;0.50;;;6.10;99.90;;;;;;5346983;26;20236;-66
2024/04/11 05:27:59;;;;;;;0.30;0.30;;;6.30;99.90;;;;;;5347918;26;20532;-60
2024/04/11 05:30:27;;;;;;;0.30;0.30;;;6.50;99.90;;;;;;5317138;26;20641;-59
2024/04/11 05:32:55;;;;;;;0.30;0.30;;;6.80;99.90;;;;;;5317297;26;20217;-59
2024/04/11 05:35:23;;;;;;;0.30;0.30;;;7.00;99.90;;;;;;5347116;26;20232;-61
2024/04/11 05:37:49;;;;;;;0.40;0.40;;;7.20;99.90;;;;;;5347043;26;20228;-65
2024/04/11 05:40:15;;;;;;;0.30;0.30;;;7.30;99.90;;;;;;5347093;26;20284;-61
2024/04/11 05:42:45;;;;;;;0.30;0.30;;;7.50;99.90;;;;;;5346767;26;20555;-60
2024/04/11 05:45:11;;;;;;;0.35;0.35;;;7.60;99.90;;;;;;5346570;26;20229;-60
2024/04/11 05:47:37;;;;;;;0.30;0.30;;;7.70;99.90;;;;;;5316407;26;20715;-60
2024/04/11 05:50:04;;;;;;;0.30;0.30;;;7.80;99.90;;;;;;5316363;26;20229;-60
2024/04/11 05:52:31;;;;;;;0.40;0.40;;;8.00;99.90;;;;;;5346845;26;20233;-60
2024/04/11 05:54:57;;;;;;;0.30;0.30;;;8.20;99.90;;;;;;5343461;26;20225;-61
2024/04/11 05:57:24;;;;;;;0.30;0.30;;;8.50;99.90;;;;;;5323927;26;20233;-61
2024/04/11 05:59:51;;;;;;;0.30;0.30;;;8.90;99.90;;;;;;5347226;26;20226;-61
2024/04/11 06:02:17;;;;;;;0.40;0.40;;;9.00;99.90;;;;;;5347128;26;20339;-61
2024/04/11 06:04:43;;;;;;;0.33;0.33;;;9.30;99.90;;;;;;5346493;26;20461;-63
2024/04/11 06:07:09;;;;;;;0.30;0.30;;;9.40;99.90;;;;;;5345927;26;20458;-62
2024/04/11 06:09:34;;;;;;;0.40;0.40;;;9.60;99.90;;;;;;5310534;26;20709;-63
2024/04/11 06:12:01;;;;;;;0.30;0.30;;;9.70;99.90;;;;;;5343263;26;20363;-61
2024/04/11 06:14:28;;;;;;;0.30;0.30;;;9.90;99.90;;;;;;5346981;26;20451;-61
2024/04/11 06:16:54;;;;;;;0.30;0.30;;;10.10;99.90;;;;;;5347671;26;20568;-61
2024/04/11 06:19:20;;;;;;;0.30;0.30;;;10.10;99.90;;;;;;5346438;26;20459;-61
2024/04/11 06:21:53;;;;;;;0.40;0.40;;;10.20;99.90;;;;;;5342384;26;20890;-59
2024/04/11 06:24:20;;;;;;;0.30;0.30;;;10.40;99.90;;;;;;5339789;26;20606;-62
2024/04/11 06:26:45;;;;;;;0.30;0.30;;;10.50;99.90;;;;;;5340993;26;20575;-67
2024/04/11 06:29:11;;;;;;;0.30;0.30;;;10.60;99.90;;;;;;5345052;26;20438;-61
2024/04/11 06:31:38;;;;;;;0.70;0.70;;;10.80;99.90;;;;;;5346531;26;20681;-61
2024/04/11 06:34:04;;;;;;;0.30;0.30;;;11.00;99.90;;;;;;5361659;26;20996;-62
2024/04/11 06:36:32;;;;;;;0.30;0.30;;;11.30;99.90;;;;;;5285952;26;20473;-62
2024/04/11 06:38:59;;;;;;;0.30;0.30;;;11.60;99.90;;;;;;5295274;26;21044;-62
2024/04/11 06:41:27;;;;;;;0.30;0.30;;;11.90;99.00;;;;;;5381646;26;20475;-63
2024/04/11 06:43:53;;;;;;;0.30;0.30;;;12.20;98.50;;;;;;5362392;26;20580;-62
2024/04/11 06:46:20;;;;;;;0.50;0.50;;;12.40;98.00;;;;;;5337006;26;20564;-61
2024/04/11 06:48:46;;;;;;;0.30;0.30;;;12.60;97.30;;;;;;5315194;26;20443;-61
2024/04/11 06:51:16;;;;;;;0.30;0.30;;;12.60;96.60;;;;;;5353448;26;20229;-61
2024/04/11 06:53:45;;;;;;;0.30;0.30;;;12.70;96.50;;;;;;5350989;26;20223;-61
2024/04/11 06:56:11;;;;;;;0.70;0.70;;;12.90;96.70;;;;;;5354385;26;20824;-61
2024/04/11 06:58:40;;;;;;;1.43;1.23;;;13.00;96.30;;;;;;5345525;26;20566;-62
2024/04/11 07:01:09;;;;;;;0.40;0.40;;;13.30;96.00;;;;;;5345439;26;20525;-62
2024/04/11 07:03:39;;;;;;;0.30;0.30;;;13.50;95.70;;;;;;5346343;26;20429;-60
2024/04/11 07:06:21;;;;;;;0.30;0.30;;;13.90;95.60;;;;;;5316998;26;20452;-61
2024/04/11 07:08:48;;;;;;;0.30;0.30;;;14.00;94.80;;;;;;5345964;26;20523;-62
2024/04/11 07:11:19;;;;;;;0.30;0.30;;;14.20;95.00;;;;;;5286340;26;20463;-62
2024/04/11 07:13:49;;;;;;;0.30;0.30;;;14.50;94.30;;;;;;5346050;26;20595;-63
2024/04/11 07:16:20;;;;;;;0.30;0.30;;;14.90;94.50;;;;;;5349528;26;21096;-63
2024/04/11 07:18:48;;;;;;;0.30;0.30;;;15.40;93.00;;;;;;5346223;26;20494;-62
2024/04/11 07:21:17;;;;;;;0.57;0.57;;;15.70;91.80;;;;;;5345959;26;20492;-61
2024/04/11 07:23:53;;;;;;;0.50;0.50;;;15.90;91.80;;;;;;5345387;26;20789;-61
2024/04/11 07:26:22;;;;;;;0.93;0.93;;;16.40;90.80;;;;;;5345029;26;20443;-62
2024/04/11 07:28:48;;;;;;;0.30;0.20;;;16.90;90.30;;;;;;5345524;26;20544;-61
2024/04/11 07:31:17;;;;;;;0.30;0.30;;;17.40;89.20;;;;;;5315380;26;20455;-61
2024/04/11 07:33:43;;;;;;;0.30;0.30;;;17.80;87.10;;;;;;5346399;26;20485;-60
2024/04/11 07:36:09;;;;;;;0.30;0.20;;;18.00;85.60;;;;;;5345351;26;20449;-61
2024/04/11 07:38:38;;;;;;;0.30;0.30;;;18.00;85.50;;;;;;5345696;26;20792;-61
2024/04/11 07:41:16;;;;;;;0.30;0.27;;;18.00;86.50;;;;;;5345842;26;20443;-63
2024/04/11 07:43:52;;;;;;;0.30;0.20;;;18.20;86.20;;;;;;5359739;26;20510;-60
2024/04/11 07:46:19;;;;;;;0.40;0.30;;;18.40;82.50;;;;;;5380346;26;20493;-61
2024/04/11 07:48:47;;;;;;;0.30;0.30;;;18.30;82.70;;;;;;5383775;26;20532;-61
2024/04/11 07:51:16;;;;;;;0.30;0.20;;;18.20;83.60;;;;;;5384323;26;20438;-60
2024/04/11 07:53:46;;;;;;;0.30;0.20;;;18.60;84.90;;;;;;5339374;26;20451;-61
2024/04/11 07:56:15;;;;;;;0.30;0.30;;;19.30;83.60;;;;;;5348929;26;20488;-63
2024/04/11 07:58:40;;;;;;;0.40;0.40;;;20.00;79.50;;;;;;5348964;26;20476;-63
2024/04/11 08:01:08;;;;;;;0.50;0.30;;;20.50;78.20;;;;;;5348762;26;20455;-64
2024/04/11 08:03:34;;;;;;;0.57;0.47;;;21.30;76.70;;;;;;5349331;26;20232;-64
2024/04/11 08:06:00;;;;;;;0.50;0.50;;;21.90;74.80;;;;;;5348543;26;20471;-62
2024/04/11 08:08:26;;;;;;;0.40;0.40;;;22.50;72.30;;;;;;5355932;26;20991;-65
2024/04/11 08:11:02;;;;;;;0.30;0.20;;;23.30;70.70;;;;;;5383599;26;20267;-64
2024/04/11 08:13:29;;;;;;;0.50;0.40;;;24.20;69.30;;;;;;5384030;26;20320;-63
2024/04/11 08:15:54;;;;;;;0.30;0.30;;;24.90;64.50;;;;;;5376535;26;20512;-64
2024/04/11 08:18:21;;;;;;;0.50;0.30;;;25.10;63.10;;;;;;5350817;26;20455;-60
2024/04/11 08:20:47;;;;;;;0.40;0.30;;;25.40;62.20;;;;;;5348896;26;20221;-61
2024/04/11 08:23:13;;;;;;;0.30;0.30;;;25.70;61.20;;;;;;5350992;26;20548;-62
2024/04/11 08:25:39;;;;;;;0.40;0.30;;;25.80;60.20;;;;;;5374391;26;20702;-61
2024/04/11 08:28:05;;;;;;;0.40;0.40;;;25.50;60.10;;;;;;5381078;26;20442;-60
2024/04/11 08:30:31;;;;;;;0.33;0.33;;;25.50;61.20;;;;;;5318268;26;20236;-61
2024/04/11 08:32:58;;;;;;;0.40;0.30;;;25.90;59.30;;;;;;5354187;26;20582;-60
2024/04/11 08:35:23;;;;;;;0.40;0.40;;;26.20;58.80;;;;;;5348161;26;20262;-62
2024/04/11 08:37:52;;;;;;;0.40;0.40;;;26.50;58.30;;;;;;5348637;26;20775;-59
2024/04/11 08:40:21;;;;;;;0.80;0.80;;;27.00;57.50;;;;;;5348927;26;20272;-62
2024/04/11 08:42:50;;;;;;;0.90;0.50;;;27.50;56.20;;;;;;5348419;26;20459;-62
2024/04/11 08:45:16;;;;;;;0.97;0.40;;;27.70;55.70;;;;;;5317250;26;20582;-61
2024/04/11 08:47:45;;;;;;;0.30;0.30;;;27.80;54.90;;;;;;5348058;26;20468;-63
2024/04/11 08:50:11;;;;;;;0.60;0.60;;;27.40;54.90;;;;;;5348822;26;22260;-61
2024/04/11 08:52:44;;;;;;;0.30;0.27;;;27.70;55.10;;;;;;5348290;26;20440;-62
2024/04/11 08:55:14;;;;;;;0.50;0.50;;;27.80;54.80;;;;;;5338517;26;20223;-60
2024/04/11 08:57:42;;;;;;;0.30;0.30;;;27.70;54.90;;;;;;5359299;26;20519;-62
2024/04/11 09:00:12;;;;;;;0.60;0.60;;;27.50;53.70;;;;;;5371260;26;20852;-62
2024/04/11 09:02:41;;;;;;;0.37;0.37;;;27.70;54.00;;;;;;5351085;26;20556;-62
2024/04/11 09:05:16;;;;;;;0.50;0.50;;;27.70;54.50;;;;;;5347751;26;20488;-61
2024/04/11 09:07:46;;;;;;;0.30;0.30;;;27.90;53.90;;;;;;5335291;26;20526;-63
2024/04/11 09:10:13;;;;;;;0.47;0.47;;;27.60;53.50;;;;;;5374394;26;20459;-63
2024/04/11 09:12:48;;;;;;;0.50;0.50;;;27.60;53.90;;;;;;5348007;26;20863;-62
2024/04/11 09:15:15;;;;;;;0.40;0.40;;;27.80;54.00;;;;;;5347425;26;20569;-63
2024/04/11 09:17:45;;;;;;;0.30;0.30;;;28.30;53.50;;;;;;5365472;26;20438;-63
2024/04/11 09:20:19;;;;;;;0.40;0.33;;;28.10;51.80;;;;;;5383870;26;20505;-65
2024/04/11 09:22:51;;;;;;;0.30;0.30;;;28.20;53.20;;;;;;5382817;26;20457;-67
2024/04/11 09:25:22;;;;;;;0.53;0.40;;;28.40;52.00;;;;;;5382264;26;20513;-66
2024/04/11 09:27:54;;;;;;;0.37;0.33;;;28.20;51.80;;;;;;5363175;26;20452;-65
2024/04/11 09:30:21;;;;;;;0.30;0.30;;;28.50;51.30;;;;;;5348068;26;20850;-67
2024/04/11 09:32:49;;;;;;;0.30;0.30;;;28.70;51.40;;;;;;5316666;26;20456;-62
2024/04/11 09:35:17;;;;;;;0.30;0.30;;;29.00;51.60;;;;;;5319354;26;20523;-62
2024/04/11 09:37:44;;;;;;;0.40;0.40;;;29.60;48.90;;;;;;5317382;26;20479;-63
2024/04/11 09:40:19;;;;;;;0.40;0.40;;;30.00;48.20;;;;;;5317178;26;20493;-63
2024/04/11 09:42:48;;;;;;;0.30;0.30;;;29.90;50.00;;;;;;5317088;26;21091;-63
2024/04/11 09:45:18;;;;;;;0.60;0.60;;;29.30;50.00;;;;;;5347399;26;20451;-63
2024/04/11 09:47:47;;;;;;;0.30;0.30;;;28.70;50.80;;;;;;5327389;26;20474;-63
2024/04/11 09:50:16;;;;;;;0.30;0.30;;;28.70;49.80;;;;;;5382439;26;20514;-64
2024/04/11 09:52:44;;;;;;;0.60;0.60;;;28.90;49.30;;;;;;5382295;26;20446;-62
2024/04/11 09:55:15;;;;;;;0.50;0.50;;;29.10;49.30;;;;;;5350938;26;20513;-63
2024/04/11 09:57:46;;;;;;;0.40;0.40;;;29.30;48.90;;;;;;5323226;26;20594;-64
2024/04/11 10:00:43;;;;;;;0.40;0.40;;;29.10;48.20;;;;;;5348974;26;20870;-64
2024/04/11 10:03:05;;;;;;;0.40;0.40;;;29.10;48.20;;;;;;5361833;26;20442;-63
2024/04/11 10:05:45;;;;;;;0.30;0.30;;;29.30;47.40;;;;;;5354350;26;21012;-63
2024/04/11 10:08:21;;;;;;;0.30;0.30;;;29.20;47.90;;;;;;5346703;26;20459;-63
2024/04/11 10:10:52;;;;;;;0.30;0.30;;;29.40;48.10;;;;;;5345058;26;20490;-63
2024/04/11 10:13:22;;;;;;;0.33;0.33;;;29.70;47.00;;;;;;5313210;26;20524;-65
2024/04/11 10:15:51;;;;;;;0.67;0.67;;;29.50;46.70;;;;;;5344248;26;20467;-63
2024/04/11 10:18:17;;;;;;;0.50;0.50;;;29.30;47.50;;;;;;5344641;26;20579;-63
2024/04/11 10:21:01;;;;;;;0.40;0.40;;;29.30;47.50;;;;;;5379526;26;20462;-63
2024/04/11 10:23:29;;;;;;;0.40;0.40;;;29.10;46.70;;;;;;5380419;26;20219;-64
2024/04/11 10:25:56;;;;;;;0.40;0.40;;;29.00;48.20;;;;;;5379570;26;21066;-64
2024/04/11 10:28:37;;;;;;;0.40;0.40;;;28.80;48.50;;;;;;5381444;26;20442;-66
2024/04/11 10:31:11;;;;;;;0.30;0.30;;;28.80;49.00;;;;;;5347416;26;20788;-64
2024/04/11 10:33:47;;;;;;;0.30;0.30;;;28.70;48.10;;;;;;5378089;26;20442;-64
2024/04/11 10:36:13;;;;;;;0.30;0.30;;;28.10;47.60;;;;;;5377881;26;20437;-64
2024/04/11 10:38:41;;;;;;;0.40;0.40;;;27.80;48.20;;;;;;5377749;26;20563;-65
2024/04/11 10:41:08;;;;;;;0.30;0.30;;;27.80;47.60;;;;;;5378288;26;20458;-67
2024/04/11 10:43:36;;;;;;;0.30;0.30;;;27.80;47.60;;;;;;5379391;26;20494;-64
2024/04/11 10:46:05;;;;;;;0.30;0.30;;;27.90;48.00;;;;;;5381285;26;20462;-64
2024/04/11 10:48:31;;;;;;;0.30;0.30;;;27.70;50.00;;;;;;5381675;26;20545;-63
2024/04/11 10:51:00;;;;;;;0.30;0.30;;;27.20;50.30;;;;;;5381841;26;20541;-63
2024/04/11 10:53:25;;;;;;;0.30;0.30;;;27.00;49.90;;;;;;5381446;26;20271;-63
2024/04/11 10:55:55;;;;;;;0.30;0.30;;;26.80;50.30;;;;;;5380693;26;20518;-63
2024/04/11 10:58:28;;;;;;;0.30;0.30;;;26.60;50.90;;;;;;5350484;26;20578;-63
2024/04/11 11:03:46;;;;;;;0.30;0.30;;;26.10;52.20;;;;;;5382812;26;20502;-64
2024/04/11 11:06:24;;;;;;;0.30;0.30;;;25.70;52.30;;;;;;5381295;26;20438;-64
2024/04/11 11:08:54;;;;;;;0.50;0.40;;;25.30;51.50;;;;;;5381171;26;20546;-63
2024/04/11 11:11:21;;;;;;;0.40;0.40;;;25.10;53.70;;;;;;5381140;26;20547;-64
2024/04/11 11:13:47;;;;;;;0.40;0.40;;;24.80;53.20;;;;;;5380766;26;20430;-63
2024/04/11 11:16:21;;;;;;;0.53;0.40;;;24.00;54.50;;;;;;5380521;26;20446;-63
2024/04/11 11:18:47;;;;;;;0.30;0.30;;;23.20;54.30;;;;;;5380687;26;20418;-63
2024/04/11 11:21:16;;;;;;;0.30;0.30;;;22.80;54.80;;;;;;5382396;26;20426;-63
2024/04/11 11:23:45;;;;;;;0.30;0.30;;;22.10;55.40;;;;;;5384251;26;20455;-64
2024/04/11 11:26:20;;;;;;;0.30;0.30;;;21.40;54.50;;;;;;5384185;26;20533;-63
2024/04/11 11:28:51;;;;;;;0.30;0.30;;;21.00;55.00;;;;;;5384237;26;20564;-63
2024/04/11 11:31:23;;;;;;;0.40;0.40;;;20.60;56.00;;;;;;5384252;26;20469;-64
2024/04/11 11:33:49;;;;;;;0.37;0.37;;;20.30;58.60;;;;;;5384057;26;20517;-63
2024/04/11 11:36:18;;;;;;;0.30;0.30;;;20.30;59.70;;;;;;5383482;26;20466;-63
2024/04/11 11:38:48;;;;;;;0.30;0.30;;;19.90;56.00;;;;;;5384108;26;20447;-62
2024/04/11 11:41:17;;;;;;;0.30;0.30;;;19.70;56.60;;;;;;5384222;26;20676;-62
2024/04/11 11:43:44;;;;;;;0.50;0.50;;;19.40;56.30;;;;;;5383997;26;20505;-63
2024/04/11 11:46:30;;;;;;;0.30;0.20;;;19.10;56.20;;;;;;5383555;26;20442;-62
2024/04/11 11:48:56;;;;;;;0.30;0.20;;;19.00;57.20;;;;;;5384013;26;20501;-63
2024/04/11 11:51:28;;;;;;;0.30;0.30;;;18.80;57.60;;;;;;5383941;26;20446;-63
2024/04/11 11:54:00;;;;;;;0.30;0.30;;;18.80;56.50;;;;;;5383849;26;20513;-63
2024/04/11 11:56:32;;;;;;;0.30;0.30;;;18.70;56.70;;;;;;5359083;26;20572;-63
2024/04/11 11:59:02;;;;;;;0.30;0.30;;;18.60;56.70;;;;;;5348747;26;20793;-63
2024/04/11 12:01:41;;;;;;;0.30;0.30;;;18.60;58.00;;;;;;5348768;26;20451;-63
2024/04/11 12:04:08;;;;;;;0.30;0.30;;;18.70;58.10;;;;;;5349299;26;20857;-63
2024/04/11 12:06:34;;;;;;;0.30;0.30;;;18.80;59.90;;;;;;5348372;26;20490;-63
2024/04/11 12:09:12;;;;;;;0.50;0.50;;;18.70;58.00;;;;;;5348436;26;20905;-64
2024/04/11 12:11:54;;;;;;;0.30;0.30;;;18.80;57.60;;;;;;5348968;26;20455;-63
2024/04/11 12:14:28;;;;;;;0.30;0.20;;;18.80;58.00;;;;;;5348701;26;20956;-63
2024/04/11 12:16:58;;;;;;;0.30;0.30;;;18.80;58.20;;;;;;5348575;26;20570;-63
2024/04/11 12:19:28;;;;;;;0.30;0.30;;;18.80;55.70;;;;;;5349188;26;20563;-63
2024/04/11 12:22:10;;;;;;;0.30;0.30;;;18.70;56.10;;;;;;5348569;26;20451;-62
2024/04/11 12:24:39;;;;;;;0.33;0.33;;;18.50;56.90;;;;;;5348663;26;20480;-66
2024/04/11 12:27:13;;;;;;;0.30;0.30;;;18.50;56.40;;;;;;5348377;26;20459;-62
2024/04/11 12:29:43;;;;;;;0.30;0.20;;;18.50;58.70;;;;;;5348783;26;20493;-63
2024/04/11 12:32:17;;;;;;;0.30;0.30;;;18.50;58.90;;;;;;5348592;26;20427;-63
2024/04/11 12:34:45;;;;;;;0.30;0.20;;;18.50;57.30;;;;;;5347352;26;20443;-64
2024/04/11 12:37:15;;;;;;;0.30;0.30;;;18.40;55.00;;;;;;5318219;26;20462;-62
2024/04/11 12:39:53;;;;;;;0.30;0.30;;;18.40;55.30;;;;;;5317831;26;20488;-62
2024/04/11 12:42:22;;;;;;;0.30;0.30;;;18.40;54.80;;;;;;5348460;26;20427;-63
2024/04/11 12:44:48;;;;;;;0.30;0.30;;;18.50;54.60;;;;;;5347716;26;20949;-63
2024/04/11 12:47:14;;;;;;;0.30;0.30;;;18.50;55.00;;;;;;5348178;26;20503;-62
2024/04/11 12:49:49;;;;;;;0.30;0.30;;;18.50;56.60;;;;;;5348296;26;20451;-63
2024/04/11 12:52:22;;;;;;;0.60;0.60;;;18.50;56.40;;;;;;5318088;26;20435;-63
2024/04/11 12:55:00;;;;;;;0.30;0.20;;;18.50;56.50;;;;;;5347701;26;20439;-62
2024/04/11 12:57:28;;;;;;;0.30;0.30;;;18.60;55.80;;;;;;5349673;26;20589;-62
2024/04/11 12:59:56;;;;;;;0.50;0.50;;;18.60;55.70;;;;;;5346726;26;20459;-64
2024/04/11 13:02:23;;;;;;;0.50;0.50;;;18.60;56.30;;;;;;5345133;26;20459;-65
2024/04/11 13:04:49;;;;;;;0.30;0.20;;;18.60;55.90;;;;;;5346751;26;20544;-64
2024/04/11 13:07:19;;;;;;;0.30;0.30;;;18.60;56.40;;;;;;5345885;26;20507;-63
2024/04/11 13:09:53;;;;;;;0.30;0.30;;;18.60;57.40;;;;;;5347953;26;20467;-63
2024/04/11 13:12:20;;;;;;;0.30;0.30;;;18.70;56.90;;;;;;5346906;26;20419;-65
2024/04/11 13:15:07;;;;;;;0.30;0.30;;;18.70;56.20;;;;;;5348137;26;20665;-63
2024/04/11 13:17:34;;;;;;;0.30;0.30;;;18.80;56.80;;;;;;5345923;26;20913;-64
2024/04/11 13:20:11;;;;;;;0.30;0.20;;;18.70;56.00;;;;;;5350533;26;20834;-64
2024/04/11 13:22:41;;;;;;;0.50;0.50;;;18.70;56.60;;;;;;5341933;26;20443;-64
2024/04/11 13:25:17;;;;;;;0.40;0.40;;;18.70;56.20;;;;;;5345512;26;20460;-64
2024/04/11 13:27:47;;;;;;;0.30;0.30;;;18.80;57.30;;;;;;5348058;26;20463;-62
2024/04/11 13:30:13;;;;;;;0.33;0.33;;;18.70;58.00;;;;;;5340625;26;20515;-60
2024/04/11 13:32:52;;;;;;;0.30;0.30;;;18.90;58.00;;;;;;5343952;26;20785;-64
2024/04/11 13:38:24;;;;;;;0.30;0.30;;;19.10;57.40;;;;;;5304500;26;20479;-63
2024/04/11 13:43:38;;;;;;;0.30;0.30;;;19.20;56.60;;;;;;5340964;26;20578;-64
2024/04/11 13:46:07;;;;;;;0.30;0.30;;;19.10;57.40;;;;;;5339544;26;20467;-63
2024/04/11 13:48:47;;;;;;;0.30;0.20;;;19.00;56.70;;;;;;5341452;26;20509;-67
2024/04/11 13:51:17;;;;;;;0.30;0.30;;;19.00;56.30;;;;;;5336649;26;20694;-65
2024/04/11 13:53:54;;;;;;;0.40;0.37;;;18.80;57.40;;;;;;5335503;26;20591;-64
2024/04/11 13:56:22;;;;;;;0.30;0.30;;;18.80;57.10;;;;;;5336341;26;20468;-64
2024/04/11 13:58:48;;;;;;;0.30;0.20;;;18.80;56.80;;;;;;5309986;26;20503;-65
2024/04/11 14:01:27;;;;;;;0.30;0.30;;;18.80;57.20;;;;;;5307509;26;20980;-63
2024/04/11 14:03:57;;;;;;;0.30;0.30;;;18.70;57.90;;;;;;5312031;26;21089;-64
2024/04/11 14:07:11;;;;;;;0.30;0.30;;;18.70;58.10;;;;;;5340308;26;20491;-64
2024/04/11 14:09:10;;;;;;;0.30;0.20;;;18.80;58.90;;;;;;5323574;26;20440;-63
2024/04/11 14:11:36;;;;;;;0.30;0.23;;;18.90;59.00;;;;;;5341964;26;20549;-66
2024/04/11 14:14:02;;;;;;;0.40;0.40;;;18.80;57.60;;;;;;5339554;26;20463;-64
2024/04/11 14:19:15;;;;;;;0.30;0.30;;;18.70;57.40;;;;;;5341439;26;21080;-64
2024/04/11 14:21:53;;;;;;;0.33;0.33;;;18.70;57.60;;;;;;5339949;26;20479;-67
2024/04/11 14:27:16;;;;;;;0.30;0.30;;;18.70;58.70;;;;;;5246880;26;20471;-65
2024/04/11 14:29:42;;;;;;;0.30;0.20;;;18.80;58.60;;;;;;5344561;26;20467;-62
2024/04/11 14:32:08;;;;;;;0.77;0.77;;;18.90;59.30;;;;;;5347116;26;20263;-63
2024/04/11 14:39:49;;;;;;;0.40;0.40;;;19.00;59.70;;;;;;5347578;26;20487;-62
2024/04/11 14:42:24;;;;;;;0.30;0.30;;;19.00;59.90;;;;;;5346397;26;20549;-63
2024/04/11 14:44:50;;;;;;;0.30;0.30;;;19.00;60.20;;;;;;5358881;26;20515;-64
2024/04/11 14:47:19;;;;;;;0.47;0.33;;;19.10;59.90;;;;;;5346380;26;20555;-64
2024/04/11 14:49:48;;;;;;;0.30;0.30;;;19.10;59.70;;;;;;5346181;26;20499;-63
2024/04/11 14:52:19;;;;;;;0.30;0.30;;;19.20;59.70;;;;;;5346575;26;20690;-64
2024/04/11 14:54:46;;;;;;;0.30;0.30;;;19.20;58.80;;;;;;5315346;26;20451;-64
2024/04/11 14:57:13;;;;;;;0.30;0.30;;;19.20;59.70;;;;;;5344130;26;20456;-66
2024/04/11 14:59:42;;;;;;;0.30;0.30;;;19.10;59.20;;;;;;5346707;26;21078;-62
2024/04/11 15:02:16;;;;;;;0.30;0.30;;;19.10;59.10;;;;;;5346160;26;20984;-63
2024/04/11 15:04:51;;;;;;;1.40;0.60;;;19.10;59.50;;;;;;5346172;26;20797;-63
2024/04/11 15:07:17;;;;;;;0.30;0.30;;;19.20;59.30;;;;;;5345956;26;20470;-59
2024/04/11 15:09:45;;;;;;;0.30;0.30;;;19.20;59.50;;;;;;5346228;26;20451;-60
2024/04/11 15:12:13;;;;;;;0.60;0.60;;;19.10;60.40;;;;;;5345454;26;20808;-62
2024/04/11 15:14:45;;;;;;;0.40;0.40;;;19.00;58.90;;;;;;5371785;26;20465;-62
2024/04/11 15:17:19;;;;;;;0.30;0.20;;;19.00;59.20;;;;;;5347710;26;20475;-60
2024/04/11 15:19:51;;;;;;;0.30;0.30;;;19.00;60.20;;;;;;5346131;26;20515;-60
2024/04/11 15:22:22;;;;;;;0.30;0.20;;;19.00;59.90;;;;;;5345926;26;20463;-60
2024/04/11 15:24:50;;;;;;;0.30;0.30;;;19.10;60.60;;;;;;5348659;26;20432;-63
2024/04/11 15:27:19;;;;;;;0.30;0.30;;;19.10;59.40;;;;;;5344667;26;20447;-63
2024/04/11 15:29:57;;;;;;;0.30;0.30;;;19.00;59.40;;;;;;5344918;26;20842;-60
2024/04/11 15:32:31;;;;;;;0.30;0.20;;;19.00;59.90;;;;;;5344893;26;20491;-61
2024/04/11 15:35:10;;;;;;;0.30;0.30;;;19.00;60.30;;;;;;5344885;26;20516;-62
2024/04/11 15:40:24;;;;;;;0.30;0.30;;;19.10;60.60;;;;;;5319586;26;20854;-61
2024/04/11 15:42:55;;;;;;;0.30;0.30;;;19.10;60.50;;;;;;5345442;26;20452;-62
2024/04/11 15:45:29;;;;;;;0.30;0.30;;;19.10;60.60;;;;;;5310791;27;20446;-65
2024/04/11 15:47:58;;;;;;;0.30;0.30;;;19.10;61.40;;;;;;5311150;27;20444;-62
2024/04/11 15:50:33;;;;;;;0.30;0.23;;;19.10;61.30;;;;;;5324761;26;20443;-62
2024/04/11 15:53:05;;;;;;;0.30;0.30;;;19.10;60.40;;;;;;5345602;26;20454;-63
2024/04/11 15:55:48;;;;;;;0.30;0.30;;;19.10;60.10;;;;;;5348965;26;20454;-61
2024/04/11 15:58:25;;;;;;;0.30;0.30;;;19.10;60.00;;;;;;5356086;26;20524;-62
2024/04/11 16:00:52;;;;;;;0.30;0.30;;;18.90;58.40;;;;;;5341175;26;20759;-59
2024/04/11 16:03:22;;;;;;;0.30;0.30;;;18.80;58.70;;;;;;5344723;26;20464;-62
2024/04/11 16:05:52;;;;;;;0.30;0.30;;;18.90;58.90;;;;;;5341935;26;20545;-63
2024/04/11 16:08:22;;;;;;;0.30;0.30;;;18.90;59.20;;;;;;5347313;26;20449;-63
2024/04/11 16:10:52;;;;;;;0.30;0.20;;;18.90;58.70;;;;;;5315183;26;20523;-62
2024/04/11 16:13:24;;;;;;;0.30;0.20;;;19.00;58.60;;;;;;5325515;26;20564;-63
2024/04/11 16:15:56;;;;;;;0.30;0.30;;;19.00;59.00;;;;;;5371478;26;20439;-62
2024/04/11 16:18:25;;;;;;;0.50;0.50;;;19.10;59.00;;;;;;5348852;26;20566;-62
2024/04/11 16:20:51;;;;;;;0.30;0.30;;;19.10;58.30;;;;;;5355191;26;20438;-63
2024/04/11 16:23:18;;;;;;;0.30;0.20;;;19.10;58.60;;;;;;5376517;26;20567;-62
2024/04/11 16:25:45;;;;;;;0.40;0.40;;;19.10;57.80;;;;;;5363009;26;20989;-63
2024/04/11 16:28:15;;;;;;;0.30;0.30;;;19.10;58.20;;;;;;5348756;26;21067;-62
2024/04/11 16:33:26;;;;;;;0.40;0.40;;;19.10;59.20;;;;;;5373907;26;20842;-61
2024/04/11 16:35:58;;;;;;;0.30;0.27;;;19.10;58.60;;;;;;5348839;26;20471;-61
2024/04/11 16:38:46;;;;;;;0.30;0.30;;;19.10;58.40;;;;;;5348825;26;20591;-63
2024/04/11 16:41:09;;;;;;;0.30;0.30;;;19.10;57.40;;;;;;5357891;26;20551;-61
2024/04/11 16:43:36;;;;;;;0.30;0.20;;;18.90;58.10;;;;;;5377689;26;20467;-63
2024/04/11 16:46:06;;;;;;;0.30;0.20;;;18.80;58.80;;;;;;5347676;26;20240;-60
2024/04/11 16:48:42;;;;;;;0.30;0.30;;;18.70;58.30;;;;;;5345419;26;20985;-64
2024/04/11 16:51:09;;;;;;;0.30;0.30;;;18.60;58.40;;;;;;5352735;26;20462;-61
2024/04/11 16:53:45;;;;;;;0.30;0.30;;;18.50;58.70;;;;;;5380460;26;20823;-63
2024/04/11 16:56:14;;;;;;;0.50;0.40;;;18.30;58.50;;;;;;5381463;26;20462;-62
2024/04/11 16:58:53;;;;;;;0.40;0.37;;;18.20;58.60;;;;;;5381198;26;20442;-64
2024/04/11 17:01:28;;;;;;;0.30;0.30;;;18.10;58.50;;;;;;5364496;26;20471;-63
2024/04/11 17:04:04;;;;;;;0.80;0.80;;;18.10;59.10;;;;;;5348126;26;20503;-62
2024/04/11 17:06:32;;;;;;;0.40;0.40;;;17.90;59.60;;;;;;5347554;26;20864;-63
2024/04/11 17:09:03;;;;;;;0.30;0.30;;;17.90;59.60;;;;;;5348057;26;20475;-61
2024/04/11 17:11:35;;;;;;;0.30;0.30;;;17.80;59.90;;;;;;5348814;26;20851;-62
2024/04/11 17:14:01;;;;;;;0.30;0.30;;;17.70;60.70;;;;;;5347937;26;20494;-62
2024/04/11 17:19:29;;;;;;;0.30;0.30;;;17.50;61.20;;;;;;5349195;26;20509;-62
2024/04/11 17:21:55;;;;;;;0.30;0.30;;;17.30;61.60;;;;;;5347803;26;20474;-63
2024/04/11 17:24:22;;;;;;;0.30;0.30;;;17.30;61.80;;;;;;5347681;26;20443;-62
2024/04/11 17:26:52;;;;;;;0.30;0.30;;;17.20;61.70;;;;;;5347546;26;20470;-62
2024/04/11 17:29:40;;;;;;;0.30;0.30;;;17.10;61.20;;;;;;5348030;26;20489;-62
2024/04/11 17:32:12;;;;;;;0.30;0.30;;;17.00;61.10;;;;;;5366341;26;20541;-63
2024/04/11 17:34:45;;;;;;;0.30;0.30;;;16.80;61.00;;;;;;5381969;26;20463;-65